HOURLY OBS INDEX

016

Northwest Pastoral

COOBER PEDY AIRPORT

Site: 016090
Alt: 225.0m
4km SW of COOBER PEDY


  Time     Wind        Temp  DP   Baro     Rain since   Rain past  Vis(m), Cloud(base in m), Weather
  local        km/h                         9am  last   hr   10m    
Tue 15:30  SSW 20/ 26  34.7  6.9  1013.3    0.0   0.0   0.0   0.0   10000 
Tue 15:30  SSW 20/ 26  34.7  6.9  1013.3    0.0   0.0  ----   0.0   10000 
Tue 16:00   SW 17/ 30  35.1  6.4  1013.0    0.0   0.0   0.0   0.0   10000 
Tue 16:30   SW 20/ 28  35.7  6.0  1012.6    0.0   0.0   0.0   0.0   10000 
Tue 17:00    S 17/ 26  35.3  2.7  1012.5    0.0   0.0   0.0   0.0   10000 
Tue 17:30    S 19/ 32  34.6  4.2  1012.4    0.0   0.0   0.0   0.0   10000 
Tue 18:00    S 17/ 24  34.4  5.0  1012.4    0.0   0.0   0.0   0.0   10000 
Tue 18:30    S 19/ 28  34.2  5.7  1012.6    0.0   0.0   0.0   0.0   10000 
Tue 19:00    S 19/ 26  34.0  5.5  1012.8    0.0   0.0   0.0   0.0   10000 
Tue 19:00    S 19/ 26  34.0  5.5  1012.8    0.0   0.0  ----   0.0   10000 
Tue 19:00    S 19/ 26  34.0  5.5  1012.8    0.0   0.0  ----   0.0   10000 
Tue 19:00    S 19/ 26  34.0  5.5  1012.8    0.0   0.0  ----   0.0   10000 
Tue 19:30    S 20/ 30  33.4  5.9  1013.1    0.0   0.0   0.0   0.0   10000 
Tue 20:00    S 17/ 20  32.9  5.5  1013.2    0.0   0.0   0.0   0.0   10000 
Tue 20:30    S 19/ 22  32.3  6.5  1013.5    0.0   0.0   0.0   0.0   10000 
Tue 20:30    S 19/ 22  32.3  6.5  1013.5    0.0   0.0  ----   0.0   10000 
Tue 20:30    S 19/ 22  32.3  6.5  1013.5    0.0   0.0  ----   0.0   10000 

ERNABELLA (PUKATJA)

Site: 016097
Alt: 703.2m
354km WNW of OODNADATTA


  Time     Wind        Temp  DP   Baro     Rain since   Rain past  Vis(m), Cloud(base in m), Weather
  local        km/h                         9am  last   hr   10m    
Tue 15:30    E 24/ 39  34.1  0.7  1015.1    0.0   0.0   0.0   0.0   ----- 
Tue 15:30    E 24/ 39  34.1  0.7  1015.1    0.0   0.0  ----   0.0   ----- 
Tue 16:00  ESE 22/ 32  34.1  1.8  1014.9    0.0   0.0   0.0   0.0   ----- 
Tue 16:30  ESE 24/ 41  34.2  0.8  1014.7    0.0   0.0   0.0   0.0   ----- 
Tue 17:00    E 22/ 30  34.4  2.0  1014.6    0.0   0.0   0.0   0.0   ----- 
Tue 17:30   SE 20/ 28  34.1  2.8  1014.4    0.0   0.0   0.0   0.0   ----- 
Tue 18:00   SE 24/ 35  33.7  2.5  1014.5    0.0   0.0   0.0   0.0   ----- 
Tue 18:30   SE 20/ 30  33.3  3.2  1014.6    0.0   0.0   0.0   0.0   ----- 
Tue 19:00   SE 24/ 35  32.8  3.7  1014.8    0.0   0.0   0.0   0.0   ----- 
Tue 19:00   SE 24/ 35  32.8  3.7  1014.8    0.0   0.0  ----   0.0   ----- 
Tue 19:00   SE 24/ 35  32.8  3.7  1014.8    0.0   0.0  ----   0.0   ----- 
Tue 19:00   SE 24/ 35  32.8  3.7  1014.8    0.0   0.0  ----   0.0   ----- 
Tue 19:30  ESE 26/ 37  31.9  3.8  1015.0    0.0   0.0   0.0   0.0   ----- 
Tue 20:00   SE 28/ 37  31.1  4.0  1015.5    0.0   0.0   0.0   0.0   ----- 
Tue 20:30   SE 20/ 32  30.6  4.4  1015.9    0.0   0.0   0.0   0.0   ----- 
Tue 20:30   SE 20/ 32  30.6  4.4  1015.9    0.0   0.0  ----   0.0   ----- 
Tue 20:30   SE 20/ 32  30.6  4.4  1015.9    0.0   0.0  ----   0.0   ----- 

ROXBY DOWNS (OLYMPIC DAM AERODROME)

Site: 016096
Alt: 98.5m
76km N of WOOMERA


  Time     Wind        Temp  DP   Baro     Rain since   Rain past  Vis(m), Cloud(base in m), Weather
  local        km/h                         9am  last   hr   10m    
Tue 15:30    W 15/ 24  35.3 11.0  1011.8    0.0   0.0   0.0   0.0   10000 
Tue 15:30    W 15/ 24  35.3 11.0  1011.8    0.0   0.0  ----   0.0   10000 
Tue 16:00   SW 19/ 33  35.1  9.5  1011.6    0.0   0.0   0.0   0.0   10000 
Tue 16:30    S 19/ 35  35.0  9.4  1011.3    0.0   0.0   0.0   0.0   10000 
Tue 17:00   SW 20/ 32  35.2  9.6  1011.1    0.0   0.0   0.0   0.0   10000 
Tue 17:30  SSW 20/ 32  35.0  9.4  1011.0    0.0   0.0   0.0   0.0   10000 
Tue 18:00  SSW 24/ 30  34.8  7.8  1011.1    0.0   0.0   0.0   0.0   10000 
Tue 18:30    S 24/ 32  34.3  7.4  1011.2    0.0   0.0   0.0   0.0   10000 
Tue 19:00  SSW 22/ 33  33.5  6.7  1011.5    0.0   0.0   0.0   0.0   10000 
Tue 19:00  SSW 22/ 33  33.5  6.7  1011.5    0.0   0.0  ----   0.0   10000 
Tue 19:00  SSW 22/ 33  33.5  6.7  1011.5    0.0   0.0  ----   0.0   10000 
Tue 19:00  SSW 22/ 33  33.5  6.7  1011.5    0.0   0.0  ----   0.0   10000 
Tue 19:30  SSW 22/ 30  33.0  6.3  1011.8    0.0   0.0   0.0   0.0   10000 
Tue 20:00  SSW 22/ 30  32.4  6.6  1012.2    0.0   0.0   0.0   0.0   10000 
Tue 20:30  SSW 19/ 24  31.7  7.4  1012.5    0.0   0.0   0.0   0.0   10000 
Tue 20:30  SSW 19/ 24  31.7  7.4  1012.5    0.0   0.0  ----   0.0   10000 
Tue 20:30  SSW 19/ 24  31.7  7.4  1012.5    0.0   0.0  ----   0.0   10000 

TARCOOLA AERO

Site: 016098
Alt: 123.0m
180km NNE of CEDUNA


  Time     Wind        Temp  DP   Baro     Rain since   Rain past  Vis(m), Cloud(base in m), Weather
  local        km/h                         9am  last   hr   10m    
Tue 15:30  SSW 15/ 26  33.1  6.4  1014.0    0.0   0.0   0.0   0.0   ----- 
Tue 15:30  SSW 15/ 26  33.1  6.4  1014.0    0.0   0.0  ----   0.0   ----- 
Tue 16:00  SSW 13/ 19  33.4  6.6  1013.7    0.0   0.0   0.0   0.0   ----- 
Tue 16:30   SW 17/ 28  33.7  6.1  1013.3    0.0   0.0   0.0   0.0   ----- 
Tue 17:00  SSW 17/ 24  33.9  6.3  1013.0    0.0   0.0   0.0   0.0   ----- 
Tue 17:30  SSW 17/ 30  34.0  7.1  1013.0    0.0   0.0   0.0   0.0   ----- 
Tue 18:00   SW 17/ 24  34.0  7.1  1013.0    0.0   0.0   0.0   0.0   ----- 
Tue 18:30   SW 19/ 28  33.5  7.5  1013.1    0.0   0.0   0.0   0.0   ----- 
Tue 19:00   SW 20/ 26  32.7  7.5  1013.4    0.0   0.0   0.0   0.0   ----- 
Tue 19:00   SW 20/ 26  32.7  7.5  1013.4    0.0   0.0  ----   0.0   ----- 
Tue 19:00   SW 20/ 26  32.7  7.5  1013.4    0.0   0.0  ----   0.0   ----- 
Tue 19:00   SW 20/ 26  32.7  7.5  1013.4    0.0   0.0  ----   0.0   ----- 
Tue 19:30  SSW 17/ 26  31.8  8.1  1013.6    0.0   0.0   0.0   0.0   ----- 
Tue 20:00  SSW 19/ 26  31.0  8.1  1014.0    0.0   0.0   0.0   0.0   ----- 
Tue 20:30  SSW 17/ 24  30.1  8.5  1014.3    0.0   0.0   0.0   0.0   ----- 
Tue 20:30  SSW 17/ 24  30.1  8.5  1014.3    0.0   0.0  ----   0.0   ----- 
Tue 20:30  SSW 17/ 24  30.1  8.5  1014.3    0.0   0.0  ----   0.0   ----- 

WOOMERA AERODROME

Site: 016001
Alt: 166.6m
1km NW of WOOMERA


  Time     Wind        Temp  DP   Baro     Rain since   Rain past  Vis(m), Cloud(base in m), Weather
  local        km/h                         9am  last   hr   10m    
Tue 15:30   SW 20/ 28  32.4 11.6  1012.9    0.0   0.0   0.0   0.0   10000|SC3750 
Tue 15:30   SW 20/ 28  32.4 11.6  1012.9    0.0   0.0  ----   0.0   10000|SC3750 
Tue 16:00   SW 20/ 32  32.5 10.5  1012.6    0.0   0.0   0.0   0.0   10000 
Tue 16:30  SSW 22/ 45  33.3  9.4  1012.5    0.0   0.0   0.0   0.0   10000 
Tue 17:00  SSW 15/ 28  33.2  9.3  1012.1    0.0   0.0   0.0   0.0   10000 
Tue 17:30  SSW 20/ 30  33.1  7.9  1012.1    0.0   0.0   0.0   0.0   10000 
Tue 18:00  WSW 22/ 32  33.3  8.0  1012.1    0.0   0.0   0.0   0.0   10000 
Tue 18:30   SW 22/ 30  32.6  8.1  1012.3    0.0   0.0   0.0   0.0   10000 
Tue 19:00   SW 22/ 28  32.2  7.1  1012.5    0.0   0.0   0.0   0.0   10000 
Tue 19:00   SW 22/ 28  32.2  7.1  1012.5    0.0   0.0  ----   0.0   10000 
Tue 19:00   SW 22/ 28  32.2  7.1  1012.5    0.0   0.0  ----   0.0   10000 
Tue 19:00   SW 22/ 28  32.2  7.1  1012.5    0.0   0.0  ----   0.0   10000 
Tue 19:30   SW 20/ 30  31.4  7.1  1012.8    0.0   0.0   0.0   0.0   10000 
Tue 20:00  SSW 19/ 24  30.7  5.9  1013.2    0.0   0.0   0.0   0.0   10000 
Tue 20:30   SW 15/ 19  30.1  6.7  1013.5    0.0   0.0   0.0   0.0   10000 
Tue 20:30   SW 15/ 19  30.1  6.7  1013.5    0.0   0.0  ----   0.0   10000 
Tue 20:30   SW 15/ 19  30.1  6.7  1013.5    0.0   0.0  ----   0.0   10000